sensor_id;sensor_type;location;lat;lon;timestamp;temperature;humidity
37426;DHT22;23285;50.180;7.036;2022-12-18T00:06:14;-4.80;93.60
37426;DHT22;23285;50.180;7.036;2022-12-18T00:08:59;-4.60;93.40
37426;DHT22;23285;50.180;7.036;2022-12-18T00:11:45;-4.10;94.00
37426;DHT22;23285;50.180;7.036;2022-12-18T00:14:30;-4.00;92.80
37426;DHT22;23285;50.180;7.036;2022-12-18T00:17:15;-4.20;92.70
37426;DHT22;23285;50.180;7.036;2022-12-18T00:19:59;-4.20;92.40
37426;DHT22;23285;50.180;7.036;2022-12-18T00:22:45;-4.40;92.80
37426;DHT22;23285;50.180;7.036;2022-12-18T00:25:33;-4.00;93.00
37426;DHT22;23285;50.180;7.036;2022-12-18T00:28:18;-4.70;93.00
37426;DHT22;23285;50.180;7.036;2022-12-18T00:31:10;-4.60;93.90
37426;DHT22;23285;50.180;7.036;2022-12-18T00:33:56;-4.70;93.60
37426;DHT22;23285;50.180;7.036;2022-12-18T00:36:41;-4.90;93.10
37426;DHT22;23285;50.180;7.036;2022-12-18T00:42:12;-4.70;94.20
37426;DHT22;23285;50.180;7.036;2022-12-18T00:45:15;-4.50;93.70
37426;DHT22;23285;50.180;7.036;2022-12-18T00:48:00;-4.40;92.80
37426;DHT22;23285;50.180;7.036;2022-12-18T00:50:47;-4.00;92.80
37426;DHT22;23285;50.180;7.036;2022-12-18T00:53:33;-3.60;93.60
37426;DHT22;23285;50.180;7.036;2022-12-18T00:56:18;-4.20;91.80
37426;DHT22;23285;50.180;7.036;2022-12-18T00:59:06;-4.40;93.60
37426;DHT22;23285;50.180;7.036;2022-12-18T01:01:51;-5.10;93.10
37426;DHT22;23285;50.180;7.036;2022-12-18T01:04:38;-5.00;93.40
37426;DHT22;23285;50.180;7.036;2022-12-18T01:07:23;-4.70;93.00
37426;DHT22;23285;50.180;7.036;2022-12-18T01:10:10;-4.50;92.80
37426;DHT22;23285;50.180;7.036;2022-12-18T01:21:18;-5.30;93.50
37426;DHT22;23285;50.180;7.036;2022-12-18T01:24:03;-5.50;93.80
37426;DHT22;23285;50.180;7.036;2022-12-18T01:26:49;-5.40;95.00
37426;DHT22;23285;50.180;7.036;2022-12-18T01:29:34;-4.50;93.30
37426;DHT22;23285;50.180;7.036;2022-12-18T01:32:19;-4.40;93.50
37426;DHT22;23285;50.180;7.036;2022-12-18T01:35:05;-4.10;93.40
37426;DHT22;23285;50.180;7.036;2022-12-18T01:37:54;-4.20;94.00
37426;DHT22;23285;50.180;7.036;2022-12-18T01:40:39;-3.60;94.50
37426;DHT22;23285;50.180;7.036;2022-12-18T01:46:31;-3.80;94.30
37426;DHT22;23285;50.180;7.036;2022-12-18T01:49:16;-4.40;93.20
37426;DHT22;23285;50.180;7.036;2022-12-18T01:52:01;-4.60;94.80
37426;DHT22;23285;50.180;7.036;2022-12-18T01:54:48;-5.50;95.30
37426;DHT22;23285;50.180;7.036;2022-12-18T01:57:34;-5.00;95.80
37426;DHT22;23285;50.180;7.036;2022-12-18T02:03:06;-5.40;95.30
37426;DHT22;23285;50.180;7.036;2022-12-18T02:17:59;-3.80;94.90
37426;DHT22;23285;50.180;7.036;2022-12-18T02:20:56;-4.00;94.20
37426;DHT22;23285;50.180;7.036;2022-12-18T02:29:53;-4.50;96.20
37426;DHT22;23285;50.180;7.036;2022-12-18T02:32:43;-4.20;95.00
37426;DHT22;23285;50.180;7.036;2022-12-18T02:38:20;-4.10;95.00
37426;DHT22;23285;50.180;7.036;2022-12-18T02:41:08;-3.80;94.50
37426;DHT22;23285;50.180;7.036;2022-12-18T02:59:30;-4.60;93.90
37426;DHT22;23285;50.180;7.036;2022-12-18T03:05:17;-4.90;95.20
37426;DHT22;23285;50.180;7.036;2022-12-18T03:11:05;-4.80;95.20
37426;DHT22;23285;50.180;7.036;2022-12-18T03:19:32;-4.40;96.90
37426;DHT22;23285;50.180;7.036;2022-12-18T03:22:18;-4.80;98.10
37426;DHT22;23285;50.180;7.036;2022-12-18T03:25:11;-5.00;99.40
37426;DHT22;23285;50.180;7.036;2022-12-18T03:28:00;-5.00;99.80
37426;DHT22;23285;50.180;7.036;2022-12-18T03:30:49;-4.60;99.50
37426;DHT22;23285;50.180;7.036;2022-12-18T03:36:24;-4.70;97.90
37426;DHT22;23285;50.180;7.036;2022-12-18T03:39:10;-4.90;96.50
37426;DHT22;23285;50.180;7.036;2022-12-18T03:45:13;-4.70;96.80
37426;DHT22;23285;50.180;7.036;2022-12-18T03:53:59;-4.70;96.60
37426;DHT22;23285;50.180;7.036;2022-12-18T04:02:26;-4.50;96.40
37426;DHT22;23285;50.180;7.036;2022-12-18T04:05:14;-4.40;96.60
37426;DHT22;23285;50.180;7.036;2022-12-18T04:08:02;-4.40;97.10
37426;DHT22;23285;50.180;7.036;2022-12-18T04:10:50;-4.30;97.50
37426;DHT22;23285;50.180;7.036;2022-12-18T04:13:37;-4.20;97.00
37426;DHT22;23285;50.180;7.036;2022-12-18T04:16:26;-3.80;97.10
37426;DHT22;23285;50.180;7.036;2022-12-18T04:19:15;-4.20;97.10
37426;DHT22;23285;50.180;7.036;2022-12-18T04:22:02;-4.40;96.80
37426;DHT22;23285;50.180;7.036;2022-12-18T04:24:52;-4.50;97.20
37426;DHT22;23285;50.180;7.036;2022-12-18T04:27:47;-4.70;97.80
37426;DHT22;23285;50.180;7.036;2022-12-18T04:36:03;-4.30;98.00
37426;DHT22;23285;50.180;7.036;2022-12-18T04:41:35;-4.70;98.50
37426;DHT22;23285;50.180;7.036;2022-12-18T04:47:06;-4.60;98.80
37426;DHT22;23285;50.180;7.036;2022-12-18T04:55:23;-4.00;97.30
37426;DHT22;23285;50.180;7.036;2022-12-18T04:58:11;-4.00;97.00
37426;DHT22;23285;50.180;7.036;2022-12-18T05:00:56;-4.20;95.50
37426;DHT22;23285;50.180;7.036;2022-12-18T05:03:41;-4.40;95.50
37426;DHT22;23285;50.180;7.036;2022-12-18T05:14:42;-4.40;95.80
37426;DHT22;23285;50.180;7.036;2022-12-18T05:17:27;-4.50;94.70
37426;DHT22;23285;50.180;7.036;2022-12-18T05:20:11;-4.60;96.10
37426;DHT22;23285;50.180;7.036;2022-12-18T05:22:57;-4.50;96.20
37426;DHT22;23285;50.180;7.036;2022-12-18T05:25:42;-4.30;96.30
37426;DHT22;23285;50.180;7.036;2022-12-18T05:28:29;-4.30;96.20
37426;DHT22;23285;50.180;7.036;2022-12-18T05:39:31;-4.30;97.10
37426;DHT22;23285;50.180;7.036;2022-12-18T05:42:16;-4.30;95.60
37426;DHT22;23285;50.180;7.036;2022-12-18T05:45:01;-4.20;95.60
37426;DHT22;23285;50.180;7.036;2022-12-18T05:47:46;-4.40;95.70
37426;DHT22;23285;50.180;7.036;2022-12-18T05:50:34;-4.40;96.10
37426;DHT22;23285;50.180;7.036;2022-12-18T05:53:20;-4.70;98.40
37426;DHT22;23285;50.180;7.036;2022-12-18T05:56:09;-4.40;98.00
37426;DHT22;23285;50.180;7.036;2022-12-18T05:58:55;-4.40;98.30
37426;DHT22;23285;50.180;7.036;2022-12-18T06:01:40;-4.30;97.60
37426;DHT22;23285;50.180;7.036;2022-12-18T06:04:27;-4.50;97.80
37426;DHT22;23285;50.180;7.036;2022-12-18T06:07:15;-4.30;98.50
37426;DHT22;23285;50.180;7.036;2022-12-18T06:09:59;-4.20;96.90
37426;DHT22;23285;50.180;7.036;2022-12-18T06:12:45;-3.90;97.40
37426;DHT22;23285;50.180;7.036;2022-12-18T06:15:30;-4.40;96.80
37426;DHT22;23285;50.180;7.036;2022-12-18T06:18:15;-4.50;96.30
37426;DHT22;23285;50.180;7.036;2022-12-18T06:23:46;-4.30;96.30
37426;DHT22;23285;50.180;7.036;2022-12-18T06:26:31;-4.30;95.30
37426;DHT22;23285;50.180;7.036;2022-12-18T06:29:16;-4.20;95.80
37426;DHT22;23285;50.180;7.036;2022-12-18T06:37:32;-4.40;96.30
37426;DHT22;23285;50.180;7.036;2022-12-18T06:40:17;-4.50;95.30
37426;DHT22;23285;50.180;7.036;2022-12-18T06:43:02;-4.70;96.50
37426;DHT22;23285;50.180;7.036;2022-12-18T06:45:47;-4.40;96.00
37426;DHT22;23285;50.180;7.036;2022-12-18T06:48:37;-4.50;96.30
37426;DHT22;23285;50.180;7.036;2022-12-18T06:51:23;-4.50;96.30
37426;DHT22;23285;50.180;7.036;2022-12-18T06:54:08;-4.20;97.40
37426;DHT22;23285;50.180;7.036;2022-12-18T06:56:53;-4.10;96.70
37426;DHT22;23285;50.180;7.036;2022-12-18T06:59:41;-4.60;97.70
37426;DHT22;23285;50.180;7.036;2022-12-18T07:02:26;-4.60;97.80
37426;DHT22;23285;50.180;7.036;2022-12-18T07:05:11;-4.50;98.10
37426;DHT22;23285;50.180;7.036;2022-12-18T07:07:56;-4.30;97.90
37426;DHT22;23285;50.180;7.036;2022-12-18T07:10:43;-4.00;97.60
37426;DHT22;23285;50.180;7.036;2022-12-18T07:13:28;-4.10;97.60
37426;DHT22;23285;50.180;7.036;2022-12-18T07:18:59;-4.30;97.00
37426;DHT22;23285;50.180;7.036;2022-12-18T07:21:44;-4.10;96.50
37426;DHT22;23285;50.180;7.036;2022-12-18T07:24:30;-4.10;95.80
37426;DHT22;23285;50.180;7.036;2022-12-18T07:27:15;-4.00;95.20
37426;DHT22;23285;50.180;7.036;2022-12-18T07:30:00;-3.90;95.40
37426;DHT22;23285;50.180;7.036;2022-12-18T07:35:32;-3.60;95.90
37426;DHT22;23285;50.180;7.036;2022-12-18T07:38:17;-3.80;94.90
37426;DHT22;23285;50.180;7.036;2022-12-18T07:41:03;-4.50;94.80
37426;DHT22;23285;50.180;7.036;2022-12-18T07:43:49;-4.50;95.60
37426;DHT22;23285;50.180;7.036;2022-12-18T07:49:19;-4.50;95.40
37426;DHT22;23285;50.180;7.036;2022-12-18T07:52:04;-4.70;95.50
37426;DHT22;23285;50.180;7.036;2022-12-18T07:54:49;-4.90;95.90
37426;DHT22;23285;50.180;7.036;2022-12-18T07:57:35;-4.70;96.30
37426;DHT22;23285;50.180;7.036;2022-12-18T08:00:19;-4.60;96.40
37426;DHT22;23285;50.180;7.036;2022-12-18T08:05:50;-4.10;96.90
37426;DHT22;23285;50.180;7.036;2022-12-18T08:08:35;-4.30;96.00
37426;DHT22;23285;50.180;7.036;2022-12-18T08:11:21;-4.10;97.00
37426;DHT22;23285;50.180;7.036;2022-12-18T08:14:06;-3.80;98.00
37426;DHT22;23285;50.180;7.036;2022-12-18T08:16:52;-4.20;97.30
37426;DHT22;23285;50.180;7.036;2022-12-18T08:19:37;-4.00;97.90
37426;DHT22;23285;50.180;7.036;2022-12-18T08:22:22;-3.80;98.90
37426;DHT22;23285;50.180;7.036;2022-12-18T08:25:07;-3.80;99.90
37426;DHT22;23285;50.180;7.036;2022-12-18T08:36:10;-3.00;99.90
37426;DHT22;23285;50.180;7.036;2022-12-18T08:38:55;-3.00;99.80
37426;DHT22;23285;50.180;7.036;2022-12-18T08:41:41;-2.90;99.90
37426;DHT22;23285;50.180;7.036;2022-12-18T08:44:26;-2.70;99.90
37426;DHT22;23285;50.180;7.036;2022-12-18T08:50:09;-2.40;99.90
37426;DHT22;23285;50.180;7.036;2022-12-18T08:52:54;-2.10;99.90
37426;DHT22;23285;50.180;7.036;2022-12-18T08:58:24;-2.00;99.90
37426;DHT22;23285;50.180;7.036;2022-12-18T09:01:11;-2.10;99.30
37426;DHT22;23285;50.180;7.036;2022-12-18T09:03:57;-2.00;99.90
37426;DHT22;23285;50.180;7.036;2022-12-18T09:06:42;-1.60;99.70
37426;DHT22;23285;50.180;7.036;2022-12-18T09:09:27;-1.70;99.00
37426;DHT22;23285;50.180;7.036;2022-12-18T09:12:12;-1.80;99.80
37426;DHT22;23285;50.180;7.036;2022-12-18T09:14:57;-1.90;99.80
37426;DHT22;23285;50.180;7.036;2022-12-18T09:17:42;-1.40;99.90
37426;DHT22;23285;50.180;7.036;2022-12-18T09:20:27;-1.20;99.70
37426;DHT22;23285;50.180;7.036;2022-12-18T09:23:14;-1.50;99.80
37426;DHT22;23285;50.180;7.036;2022-12-18T09:26:00;-1.30;99.70
37426;DHT22;23285;50.180;7.036;2022-12-18T09:31:30;-0.70;99.90
37426;DHT22;23285;50.180;7.036;2022-12-18T09:34:16;-0.60;99.10
37426;DHT22;23285;50.180;7.036;2022-12-18T09:37:01;-0.50;99.10
37426;DHT22;23285;50.180;7.036;2022-12-18T09:39:46;-0.30;99.10
37426;DHT22;23285;50.180;7.036;2022-12-18T09:45:17;-0.20;99.90
37426;DHT22;23285;50.180;7.036;2022-12-18T09:50:50;-0.20;99.60
37426;DHT22;23285;50.180;7.036;2022-12-18T09:53:37;0.00;99.50
37426;DHT22;23285;50.180;7.036;2022-12-18T09:56:23;0.10;99.30
37426;DHT22;23285;50.180;7.036;2022-12-18T10:02:22;-0.50;99.90
37426;DHT22;23285;50.180;7.036;2022-12-18T10:05:17;-0.50;99.90
37426;DHT22;23285;50.180;7.036;2022-12-18T10:08:13;-0.70;99.90
37426;DHT22;23285;50.180;7.036;2022-12-18T10:14:20;-1.00;99.90
37426;DHT22;23285;50.180;7.036;2022-12-18T10:20:02;-1.30;99.90
37426;DHT22;23285;50.180;7.036;2022-12-18T10:31:32;-0.10;99.90
37426;DHT22;23285;50.180;7.036;2022-12-18T10:34:17;-0.20;99.30
37426;DHT22;23285;50.180;7.036;2022-12-18T10:37:06;-0.20;99.90
37426;DHT22;23285;50.180;7.036;2022-12-18T10:40:15;-0.40;99.90
37426;DHT22;23285;50.180;7.036;2022-12-18T10:43:05;-0.30;99.90
37426;DHT22;23285;50.180;7.036;2022-12-18T10:51:40;-0.10;99.90
37426;DHT22;23285;50.180;7.036;2022-12-18T10:57:36;-0.20;99.90
37426;DHT22;23285;50.180;7.036;2022-12-18T11:00:29;-0.10;99.90
37426;DHT22;23285;50.180;7.036;2022-12-18T11:06:33;0.10;99.90
37426;DHT22;23285;50.180;7.036;2022-12-18T11:09:25;-0.20;99.70
37426;DHT22;23285;50.180;7.036;2022-12-18T11:12:19;-0.30;99.90
37426;DHT22;23285;50.180;7.036;2022-12-18T11:15:05;-0.30;99.90
37426;DHT22;23285;50.180;7.036;2022-12-18T11:17:51;-0.50;99.90
37426;DHT22;23285;50.180;7.036;2022-12-18T11:23:23;-0.40;99.90
37426;DHT22;23285;50.180;7.036;2022-12-18T11:26:09;0.10;99.90
37426;DHT22;23285;50.180;7.036;2022-12-18T11:32:21;0.20;99.90
37426;DHT22;23285;50.180;7.036;2022-12-18T11:38:06;-0.50;99.90
37426;DHT22;23285;50.180;7.036;2022-12-18T11:44:13;0.30;99.90
37426;DHT22;23285;50.180;7.036;2022-12-18T11:50:01;0.50;99.90
37426;DHT22;23285;50.180;7.036;2022-12-18T11:58:58;0.30;99.90
37426;DHT22;23285;50.180;7.036;2022-12-18T12:01:55;0.20;99.90
37426;DHT22;23285;50.180;7.036;2022-12-18T12:04:48;0.00;99.90
37426;DHT22;23285;50.180;7.036;2022-12-18T12:40:39;-0.70;99.90
37426;DHT22;23285;50.180;7.036;2022-12-18T12:49:15;-1.10;99.90
37426;DHT22;23285;50.180;7.036;2022-12-18T12:52:13;-0.90;99.90
37426;DHT22;23285;50.180;7.036;2022-12-18T12:55:02;-0.80;99.90
37426;DHT22;23285;50.180;7.036;2022-12-18T12:58:05;-1.20;99.90
37426;DHT22;23285;50.180;7.036;2022-12-18T13:07:01;-1.50;99.90
37426;DHT22;23285;50.180;7.036;2022-12-18T13:13:10;-1.20;99.90
37426;DHT22;23285;50.180;7.036;2022-12-18T13:16:07;-0.60;99.90
37426;DHT22;23285;50.180;7.036;2022-12-18T13:21:41;-0.80;99.90
37426;DHT22;23285;50.180;7.036;2022-12-18T13:36:23;-0.40;99.90
37426;DHT22;23285;50.180;7.036;2022-12-18T13:44:50;-0.70;99.90
37426;DHT22;23285;50.180;7.036;2022-12-18T13:47:37;-0.30;99.90
37426;DHT22;23285;50.180;7.036;2022-12-18T13:50:24;0.00;99.90
37426;DHT22;23285;50.180;7.036;2022-12-18T13:53:21;-0.20;99.90
37426;DHT22;23285;50.180;7.036;2022-12-18T13:56:07;-0.40;99.90
37426;DHT22;23285;50.180;7.036;2022-12-18T13:59:15;-0.80;99.90
37426;DHT22;23285;50.180;7.036;2022-12-18T14:02:13;-0.90;99.90
37426;DHT22;23285;50.180;7.036;2022-12-18T14:04:58;-0.70;99.90
37426;DHT22;23285;50.180;7.036;2022-12-18T14:10:29;-1.20;99.90
37426;DHT22;23285;50.180;7.036;2022-12-18T14:13:41;-0.90;99.90
37426;DHT22;23285;50.180;7.036;2022-12-18T14:16:27;-0.80;99.90
37426;DHT22;23285;50.180;7.036;2022-12-18T14:19:17;-1.10;99.90
37426;DHT22;23285;50.180;7.036;2022-12-18T14:22:03;-1.00;99.90
37426;DHT22;23285;50.180;7.036;2022-12-18T14:25:06;-1.10;99.90
37426;DHT22;23285;50.180;7.036;2022-12-18T14:30:53;-1.00;99.90
37426;DHT22;23285;50.180;7.036;2022-12-18T14:36:27;-1.10;99.90
37426;DHT22;23285;50.180;7.036;2022-12-18T14:39:17;-1.50;99.90
37426;DHT22;23285;50.180;7.036;2022-12-18T14:44:48;-1.40;99.90
37426;DHT22;23285;50.180;7.036;2022-12-18T14:47:33;-1.20;99.90
37426;DHT22;23285;50.180;7.036;2022-12-18T14:50:18;-1.30;99.90
37426;DHT22;23285;50.180;7.036;2022-12-18T14:53:03;-1.30;99.90
37426;DHT22;23285;50.180;7.036;2022-12-18T14:55:48;-1.50;99.90
37426;DHT22;23285;50.180;7.036;2022-12-18T14:58:34;-1.20;99.90
37426;DHT22;23285;50.180;7.036;2022-12-18T15:21:21;-0.60;99.90
37426;DHT22;23285;50.180;7.036;2022-12-18T15:24:17;-1.00;99.90
37426;DHT22;23285;50.180;7.036;2022-12-18T15:27:03;-0.90;99.90
37426;DHT22;23285;50.180;7.036;2022-12-18T15:30:20;-0.70;99.90
37426;DHT22;23285;50.180;7.036;2022-12-18T15:33:26;-0.80;99.90
37426;DHT22;23285;50.180;7.036;2022-12-18T15:36:14;-0.80;99.90
37426;DHT22;23285;50.180;7.036;2022-12-18T15:38:59;-0.50;99.90
37426;DHT22;23285;50.180;7.036;2022-12-18T15:41:45;-1.00;99.90
37426;DHT22;23285;50.180;7.036;2022-12-18T15:44:50;-1.40;99.90
37426;DHT22;23285;50.180;7.036;2022-12-18T15:47:35;-1.00;99.90
37426;DHT22;23285;50.180;7.036;2022-12-18T15:50:20;-1.30;99.90
37426;DHT22;23285;50.180;7.036;2022-12-18T15:53:05;-1.50;99.90
37426;DHT22;23285;50.180;7.036;2022-12-18T15:55:50;-1.60;99.90
37426;DHT22;23285;50.180;7.036;2022-12-18T16:01:42;-0.90;99.90
37426;DHT22;23285;50.180;7.036;2022-12-18T16:04:27;-1.40;99.90
37426;DHT22;23285;50.180;7.036;2022-12-18T16:09:58;-1.30;99.90
37426;DHT22;23285;50.180;7.036;2022-12-18T16:12:43;-1.50;99.90
37426;DHT22;23285;50.180;7.036;2022-12-18T16:15:28;-1.50;99.90
37426;DHT22;23285;50.180;7.036;2022-12-18T16:18:14;-1.40;99.90
37426;DHT22;23285;50.180;7.036;2022-12-18T16:26:29;-1.60;99.90
37426;DHT22;23285;50.180;7.036;2022-12-18T16:29:18;-1.30;99.90
37426;DHT22;23285;50.180;7.036;2022-12-18T16:32:04;-1.30;99.90
37426;DHT22;23285;50.180;7.036;2022-12-18T16:34:49;-1.10;99.90
37426;DHT22;23285;50.180;7.036;2022-12-18T16:40:19;-1.10;99.90
37426;DHT22;23285;50.180;7.036;2022-12-18T16:43:04;-0.90;99.90
37426;DHT22;23285;50.180;7.036;2022-12-18T16:45:50;-1.00;99.90
37426;DHT22;23285;50.180;7.036;2022-12-18T16:48:35;-0.70;99.90
37426;DHT22;23285;50.180;7.036;2022-12-18T16:51:19;-1.20;99.90
37426;DHT22;23285;50.180;7.036;2022-12-18T16:56:51;-0.50;99.90
37426;DHT22;23285;50.180;7.036;2022-12-18T16:59:36;-0.90;99.90
37426;DHT22;23285;50.180;7.036;2022-12-18T17:02:23;-1.10;99.90
37426;DHT22;23285;50.180;7.036;2022-12-18T17:05:08;-1.10;99.90
37426;DHT22;23285;50.180;7.036;2022-12-18T17:07:54;-1.00;99.90
37426;DHT22;23285;50.180;7.036;2022-12-18T17:10:39;-1.20;99.90
37426;DHT22;23285;50.180;7.036;2022-12-18T17:13:26;-1.30;99.90
37426;DHT22;23285;50.180;7.036;2022-12-18T17:16:11;-0.90;99.90
37426;DHT22;23285;50.180;7.036;2022-12-18T17:18:56;-0.80;99.90
37426;DHT22;23285;50.180;7.036;2022-12-18T17:21:42;-0.70;99.90
37426;DHT22;23285;50.180;7.036;2022-12-18T17:24:27;-0.90;99.90
37426;DHT22;23285;50.180;7.036;2022-12-18T17:27:13;-0.80;99.90
37426;DHT22;23285;50.180;7.036;2022-12-18T17:32:43;-0.80;99.90
37426;DHT22;23285;50.180;7.036;2022-12-18T17:35:28;-0.50;99.90
37426;DHT22;23285;50.180;7.036;2022-12-18T17:41:04;-1.40;99.90
37426;DHT22;23285;50.180;7.036;2022-12-18T17:46:42;-1.70;99.90
37426;DHT22;23285;50.180;7.036;2022-12-18T17:49:27;-1.20;99.90
37426;DHT22;23285;50.180;7.036;2022-12-18T17:52:12;-1.10;99.90
37426;DHT22;23285;50.180;7.036;2022-12-18T17:54:57;-0.80;99.90
37426;DHT22;23285;50.180;7.036;2022-12-18T17:57:42;-0.30;99.90
37426;DHT22;23285;50.180;7.036;2022-12-18T18:00:28;-0.50;99.90
37426;DHT22;23285;50.180;7.036;2022-12-18T18:03:13;-0.60;99.90
37426;DHT22;23285;50.180;7.036;2022-12-18T18:06:00;-1.10;99.90
37426;DHT22;23285;50.180;7.036;2022-12-18T18:14:39;-0.90;99.90
37426;DHT22;23285;50.180;7.036;2022-12-18T18:17:24;-1.10;99.90
37426;DHT22;23285;50.180;7.036;2022-12-18T18:20:09;-1.00;99.90
37426;DHT22;23285;50.180;7.036;2022-12-18T18:25:40;-1.80;99.90
37426;DHT22;23285;50.180;7.036;2022-12-18T18:28:25;-1.30;99.90
37426;DHT22;23285;50.180;7.036;2022-12-18T18:31:10;-1.00;99.90
37426;DHT22;23285;50.180;7.036;2022-12-18T18:33:56;-0.70;99.90
37426;DHT22;23285;50.180;7.036;2022-12-18T18:36:41;-1.00;99.90
37426;DHT22;23285;50.180;7.036;2022-12-18T18:39:27;-0.60;99.90
37426;DHT22;23285;50.180;7.036;2022-12-18T18:42:12;-0.40;99.90
37426;DHT22;23285;50.180;7.036;2022-12-18T18:47:42;-0.80;99.90
37426;DHT22;23285;50.180;7.036;2022-12-18T18:53:12;-0.50;99.90
37426;DHT22;23285;50.180;7.036;2022-12-18T18:55:58;-0.90;99.90
37426;DHT22;23285;50.180;7.036;2022-12-18T19:01:29;-1.50;99.90
37426;DHT22;23285;50.180;7.036;2022-12-18T19:04:14;-1.50;99.90
37426;DHT22;23285;50.180;7.036;2022-12-18T19:06:59;-1.40;99.90
37426;DHT22;23285;50.180;7.036;2022-12-18T19:09:44;-1.40;99.90
37426;DHT22;23285;50.180;7.036;2022-12-18T19:15:39;-1.70;99.90
37426;DHT22;23285;50.180;7.036;2022-12-18T19:18:24;-1.20;99.90
37426;DHT22;23285;50.180;7.036;2022-12-18T19:21:10;-1.00;99.90
37426;DHT22;23285;50.180;7.036;2022-12-18T19:26:41;-1.40;99.90
37426;DHT22;23285;50.180;7.036;2022-12-18T19:29:26;-1.40;99.90
37426;DHT22;23285;50.180;7.036;2022-12-18T19:32:11;-0.60;99.90
37426;DHT22;23285;50.180;7.036;2022-12-18T19:34:56;-0.20;99.90
37426;DHT22;23285;50.180;7.036;2022-12-18T19:43:13;-0.10;99.90
37426;DHT22;23285;50.180;7.036;2022-12-18T19:45:58;0.10;99.90
37426;DHT22;23285;50.180;7.036;2022-12-18T19:48:44;0.00;99.90
37426;DHT22;23285;50.180;7.036;2022-12-18T19:51:30;0.00;99.90
37426;DHT22;23285;50.180;7.036;2022-12-18T19:54:15;-0.20;99.90
37426;DHT22;23285;50.180;7.036;2022-12-18T19:57:00;-0.10;99.90
37426;DHT22;23285;50.180;7.036;2022-12-18T19:59:46;0.10;99.90
37426;DHT22;23285;50.180;7.036;2022-12-18T20:05:19;0.60;99.90
37426;DHT22;23285;50.180;7.036;2022-12-18T20:08:08;0.30;99.90
37426;DHT22;23285;50.180;7.036;2022-12-18T20:10:53;-0.20;99.90
37426;DHT22;23285;50.180;7.036;2022-12-18T20:13:38;0.00;99.90
37426;DHT22;23285;50.180;7.036;2022-12-18T20:16:23;-0.40;99.90
37426;DHT22;23285;50.180;7.036;2022-12-18T20:19:09;-0.80;99.90
37426;DHT22;23285;50.180;7.036;2022-12-18T20:21:56;-0.70;99.90
37426;DHT22;23285;50.180;7.036;2022-12-18T20:24:41;-0.20;99.90
37426;DHT22;23285;50.180;7.036;2022-12-18T20:27:26;-0.40;99.90
37426;DHT22;23285;50.180;7.036;2022-12-18T20:30:11;-0.60;99.90
37426;DHT22;23285;50.180;7.036;2022-12-18T20:35:41;-0.20;99.90
37426;DHT22;23285;50.180;7.036;2022-12-18T20:38:27;-0.10;99.90
37426;DHT22;23285;50.180;7.036;2022-12-18T20:46:46;0.80;99.90
37426;DHT22;23285;50.180;7.036;2022-12-18T20:52:16;0.40;99.90
37426;DHT22;23285;50.180;7.036;2022-12-18T20:55:02;0.20;99.90
37426;DHT22;23285;50.180;7.036;2022-12-18T20:57:47;-0.10;99.90
37426;DHT22;23285;50.180;7.036;2022-12-18T21:00:33;0.00;99.90
37426;DHT22;23285;50.180;7.036;2022-12-18T21:03:19;-0.40;99.90
37426;DHT22;23285;50.180;7.036;2022-12-18T21:06:05;-0.10;99.90
37426;DHT22;23285;50.180;7.036;2022-12-18T21:08:50;-0.20;99.90
37426;DHT22;23285;50.180;7.036;2022-12-18T21:11:35;0.00;99.90
37426;DHT22;23285;50.180;7.036;2022-12-18T21:14:38;-0.20;99.90
37426;DHT22;23285;50.180;7.036;2022-12-18T21:17:23;0.20;99.90
37426;DHT22;23285;50.180;7.036;2022-12-18T21:25:40;-0.40;99.90
37426;DHT22;23285;50.180;7.036;2022-12-18T21:28:25;-0.60;99.90
37426;DHT22;23285;50.180;7.036;2022-12-18T21:33:56;0.00;99.90
37426;DHT22;23285;50.180;7.036;2022-12-18T21:36:41;-0.50;99.90
37426;DHT22;23285;50.180;7.036;2022-12-18T21:39:27;-0.60;99.90
37426;DHT22;23285;50.180;7.036;2022-12-18T21:42:12;-0.40;99.90
37426;DHT22;23285;50.180;7.036;2022-12-18T21:48:01;-0.20;99.90
37426;DHT22;23285;50.180;7.036;2022-12-18T21:50:46;-0.20;99.90
37426;DHT22;23285;50.180;7.036;2022-12-18T21:56:17;-0.10;99.90
37426;DHT22;23285;50.180;7.036;2022-12-18T21:59:02;-0.10;99.90
37426;DHT22;23285;50.180;7.036;2022-12-18T22:01:48;-0.20;99.90
37426;DHT22;23285;50.180;7.036;2022-12-18T22:04:34;0.10;99.90
37426;DHT22;23285;50.180;7.036;2022-12-18T22:07:19;-0.20;99.90
37426;DHT22;23285;50.180;7.036;2022-12-18T22:10:04;-0.30;99.90
37426;DHT22;23285;50.180;7.036;2022-12-18T22:12:49;-0.40;99.90
37426;DHT22;23285;50.180;7.036;2022-12-18T22:15:34;0.00;99.90
37426;DHT22;23285;50.180;7.036;2022-12-18T22:21:05;0.30;99.90
37426;DHT22;23285;50.180;7.036;2022-12-18T22:26:48;-0.10;99.90
37426;DHT22;23285;50.180;7.036;2022-12-18T22:29:33;-0.30;99.90
37426;DHT22;23285;50.180;7.036;2022-12-18T22:32:36;-0.60;99.90
37426;DHT22;23285;50.180;7.036;2022-12-18T22:38:07;-0.40;99.90
37426;DHT22;23285;50.180;7.036;2022-12-18T22:40:53;-0.20;99.90
37426;DHT22;23285;50.180;7.036;2022-12-18T22:43:38;-0.20;99.90
37426;DHT22;23285;50.180;7.036;2022-12-18T22:46:24;-0.40;99.90
37426;DHT22;23285;50.180;7.036;2022-12-18T22:49:15;-0.20;99.90
37426;DHT22;23285;50.180;7.036;2022-12-18T22:52:00;-0.50;99.90
37426;DHT22;23285;50.180;7.036;2022-12-18T23:05:47;0.10;99.90
37426;DHT22;23285;50.180;7.036;2022-12-18T23:08:35;0.40;99.90
37426;DHT22;23285;50.180;7.036;2022-12-18T23:11:20;0.20;99.90
37426;DHT22;23285;50.180;7.036;2022-12-18T23:19:36;0.60;99.90
37426;DHT22;23285;50.180;7.036;2022-12-18T23:22:21;0.10;99.90
37426;DHT22;23285;50.180;7.036;2022-12-18T23:25:06;-0.10;99.90
37426;DHT22;23285;50.180;7.036;2022-12-18T23:27:54;0.20;99.90
37426;DHT22;23285;50.180;7.036;2022-12-18T23:30:39;0.00;99.90
37426;DHT22;23285;50.180;7.036;2022-12-18T23:33:24;-0.10;99.90
37426;DHT22;23285;50.180;7.036;2022-12-18T23:36:10;-0.10;99.90
37426;DHT22;23285;50.180;7.036;2022-12-18T23:44:28;0.50;99.90
37426;DHT22;23285;50.180;7.036;2022-12-18T23:49:59;0.10;99.90
37426;DHT22;23285;50.180;7.036;2022-12-18T23:52:44;0.00;99.90
37426;DHT22;23285;50.180;7.036;2022-12-18T23:55:29;0.20;99.90
37426;DHT22;23285;50.180;7.036;2022-12-18T23:58:19;0.30;99.90
